aviador You're here:

LEIB Decoded Metar

IBIZA in SPAIN
Report Time2017-08-22 08:30:00
UTC Time2017-08-22 09:05:57
Flight Rules vfr VFR
Wind080° at 03 kt
W.Decomp.*RWY 06: 2.8 kt HW 1.0 kt RCW
W.Rank080° ranks 3
Current wind is below 080° avg. (7.7)
Visibility9999 m
Phenomena:N/A
Clouds:Few 018 Hf
Expected CloudBase > 2,400 ft AGL from Temp-Dew spread
CeilingNone
Temp27°C (ISA +12)
Dew Point21°C (70% RH)
Heat Index28.9°C
QNH1019 hPa
Density Alt1,558 ft
Elevation39 ft
Report Wrong Elevation
Raw Report
LEIB 220830Z 08003KT 020V140 9999 FEW018 27/21 Q1019 NOSIG=

Extra information for LEIB:More info

Metar Taf Metar & Taf Last 4 Metars F.Rules Stats Wind Profile Meteogram Temp Stats Airport Information Weather charts Add Link Nearby VenuesMetar ALERT Operation Metar Decoded Social comments